Oakdale, California
Current Conditions -  °F | °C
As of 9:53 PM on Saturday 20 Dec 2014 (Local Time) from KMOD Reporting Station
Haze Haze  
Wind Chill: 56°   Ceiling: 4200
Heat Index: 56°   Visibility: 5mi
Dew Point: 53°   Wind: 0mph
Humidity: 90%   Direction: NA
Pressure: 30.26"   Gusts: NA
Location:  37.77°N, 120.84°W
Report Text: KMOD 210553Z AUTO 00000KT 5SM BR OVC042 13/12 A3026 RMK AO2 SLP249 T01330117 10144 20128 53010
Loading
Personal Weather Stations






























Interactive Weather Map New forecast layout! Learn more

10-Day Weather Forecast

Advertisements
Track Severe Weather on mobile